createdAt,value
2022-12-04T00:04:47.444Z,99879.50
2022-12-04T00:09:49.115Z,99880.22
2022-12-04T00:15:23.846Z,99882.88
2022-12-04T00:20:12.302Z,99894.22
2022-12-04T00:25:13.969Z,99894.66
2022-12-04T00:30:15.626Z,99885.06
2022-12-04T00:35:17.335Z,99888.22
2022-12-04T00:40:18.959Z,99889.75
2022-12-04T00:45:20.668Z,99883.66
2022-12-04T00:50:22.337Z,99891.53
2022-12-04T00:55:25.240Z,99890.13
2022-12-04T01:00:28.591Z,99890.09
2022-12-04T01:05:30.393Z,99887.50
2022-12-04T01:10:31.997Z,99886.41
2022-12-04T01:15:33.667Z,99884.84
2022-12-04T01:20:35.359Z,99870.88
2022-12-04T01:25:36.977Z,99885.06
2022-12-04T01:30:38.597Z,99866.91
2022-12-04T01:35:40.180Z,99859.13
2022-12-04T01:40:44.400Z,99862.03
2022-12-04T01:45:51.070Z,99858.75
2022-12-04T01:50:56.567Z,99860.84
2022-12-04T01:55:58.212Z,99854.06
2022-12-04T02:01:08.457Z,99858.41
2022-12-04T02:06:10.854Z,99855.13
2022-12-04T02:11:44.671Z,99855.94
2022-12-04T02:17:11.166Z,99860.94
2022-12-04T02:22:48.545Z,99857.47
2022-12-04T02:28:17.768Z,99859.13
2022-12-04T02:33:23.702Z,99863.66
2022-12-04T02:38:33.269Z,99877.22
2022-12-04T02:44:25.927Z,99881.81
2022-12-04T02:49:36.321Z,99884.53
2022-12-04T02:54:42.431Z,99872.81
2022-12-04T02:59:47.461Z,99870.63
2022-12-04T03:04:51.959Z,99867.19
2022-12-04T03:10:02.943Z,99859.59
2022-12-04T03:15:10.643Z,99867.03
2022-12-04T03:20:14.859Z,99864.94
2022-12-04T03:25:16.481Z,99867.63
2022-12-04T03:30:21.875Z,99863.38
2022-12-04T03:35:29.244Z,99864.09
2022-12-04T03:40:52.539Z,99864.72
2022-12-04T03:46:09.550Z,99872.88
2022-12-04T03:51:19.567Z,99866.38
2022-12-04T03:56:29.439Z,99856.66
2022-12-04T04:01:38.662Z,99855.25
2022-12-04T04:06:47.416Z,99844.09
2022-12-04T04:11:57.169Z,99850.72
2022-12-04T04:17:26.761Z,99840.25
2022-12-04T04:22:50.401Z,99839.50
2022-12-04T04:27:57.046Z,99844.34
2022-12-04T04:33:08.345Z,99856.88
2022-12-04T04:38:12.617Z,99850.25
2022-12-04T04:43:37.082Z,99858.22
2022-12-04T04:48:46.654Z,99851.88
2022-12-04T04:53:52.424Z,99855.34
2022-12-04T04:58:54.076Z,99851.06
2022-12-04T05:03:55.651Z,99856.75
2022-12-04T05:08:57.363Z,99853.22
2022-12-04T05:13:58.993Z,99857.50
2022-12-04T05:19:19.513Z,99860.94
2022-12-04T05:24:21.110Z,99866.00
2022-12-04T05:29:22.719Z,99854.69
2022-12-04T05:34:24.371Z,99857.91
2022-12-04T05:39:25.946Z,99862.34
2022-12-04T05:44:27.548Z,99857.44
2022-12-04T05:49:30.286Z,99860.13
2022-12-04T05:54:32.293Z,99866.09
2022-12-04T05:59:34.188Z,99863.97
2022-12-04T06:04:37.316Z,99860.78
2022-12-04T06:09:39.019Z,99859.53
2022-12-04T06:14:40.610Z,99856.66
2022-12-04T06:19:42.193Z,99867.09
2022-12-04T06:24:43.790Z,99872.75
2022-12-04T06:29:45.402Z,99883.59
2022-12-04T06:34:49.401Z,99883.44
2022-12-04T06:39:51.386Z,99883.97
2022-12-04T06:44:53.154Z,99885.47
2022-12-04T06:49:55.072Z,99881.06
2022-12-04T06:54:56.838Z,99886.91
2022-12-04T06:59:58.662Z,99891.06
2022-12-04T07:05:00.331Z,99896.22
2022-12-04T07:10:03.405Z,99889.94
2022-12-04T07:15:05.503Z,99903.47
2022-12-04T07:20:07.554Z,99882.88
2022-12-04T07:25:09.751Z,99878.31
2022-12-04T07:30:15.640Z,99883.44
2022-12-04T07:35:17.710Z,99873.72
2022-12-04T07:40:19.386Z,99882.53
2022-12-04T07:45:21.210Z,99888.53
2022-12-04T07:50:23.025Z,99883.44
2022-12-04T07:55:24.620Z,99877.16
2022-12-04T08:00:26.266Z,99871.44
2022-12-04T08:05:27.884Z,99872.44
2022-12-04T08:10:29.496Z,99869.94
2022-12-04T08:15:31.139Z,99869.66
2022-12-04T08:20:32.869Z,99872.31
2022-12-04T08:25:34.511Z,99869.53
2022-12-04T08:30:36.297Z,99871.72
2022-12-04T08:35:37.977Z,99873.25
2022-12-04T08:40:39.544Z,99868.75
2022-12-04T08:45:41.133Z,99866.56
2022-12-04T08:50:45.890Z,99883.09
2022-12-04T08:55:47.575Z,99894.72
2022-12-04T09:00:49.784Z,99884.94
2022-12-04T09:05:51.430Z,99881.56
2022-12-04T09:10:53.018Z,99882.59
2022-12-04T09:15:54.670Z,99876.72
2022-12-04T09:20:58.582Z,99874.19
2022-12-04T09:26:00.221Z,99877.53
2022-12-04T09:31:04.613Z,99867.94
2022-12-04T09:36:06.619Z,99870.22
2022-12-04T09:41:36.169Z,99861.78
2022-12-04T09:46:42.833Z,99856.97
2022-12-04T09:51:45.198Z,99863.84
2022-12-04T09:56:54.938Z,99857.63
2022-12-04T10:02:31.541Z,99861.97
2022-12-04T10:07:54.470Z,99855.53
2022-12-04T10:13:14.898Z,99838.59
2022-12-04T10:18:22.417Z,99835.97
2022-12-04T10:23:51.852Z,99829.25
2022-12-04T10:29:01.190Z,99829.78
2022-12-04T10:34:14.154Z,99828.47
2022-12-04T10:39:25.389Z,99830.78
2022-12-04T10:44:26.950Z,99831.22
2022-12-04T10:49:30.733Z,99816.84
2022-12-04T10:55:00.974Z,99820.94
2022-12-04T11:00:22.714Z,99809.00
2022-12-04T11:05:32.181Z,99806.81
2022-12-04T11:10:33.758Z,99801.41
2022-12-04T11:15:43.135Z,99790.84
2022-12-04T11:20:51.081Z,99784.50
2022-12-04T11:26:05.218Z,99775.28
2022-12-04T11:31:09.496Z,99771.91
2022-12-04T11:36:22.049Z,99763.59
2022-12-04T11:41:29.270Z,99757.91
2022-12-04T11:46:34.999Z,99763.88
2022-12-04T11:51:49.084Z,99761.66
2022-12-04T11:56:59.590Z,99754.91
2022-12-04T12:02:38.280Z,99756.03
2022-12-04T12:08:02.410Z,99744.09
2022-12-04T12:13:18.178Z,99739.34
2022-12-04T12:18:38.086Z,99762.56
2022-12-04T12:23:44.890Z,99765.63
2022-12-04T12:29:04.589Z,99761.94
2022-12-04T12:34:15.584Z,99751.69
2022-12-04T12:39:26.055Z,99757.97
2022-12-04T12:44:41.991Z,99769.41
2022-12-04T12:49:54.214Z,99782.09
2022-12-04T12:55:02.604Z,99773.56
2022-12-04T13:00:07.816Z,99760.97
2022-12-04T13:05:13.523Z,99762.16
2022-12-04T13:10:48.064Z,99745.31
2022-12-04T13:16:19.763Z,99741.19
2022-12-04T13:21:47.513Z,99737.75
2022-12-04T13:27:07.793Z,99739.22
2022-12-04T13:32:44.506Z,99729.25
2022-12-04T13:38:10.637Z,99732.53
2022-12-04T13:43:23.918Z,99748.00
2022-12-04T13:48:30.973Z,99740.97
2022-12-04T13:53:37.870Z,99732.47
2022-12-04T13:58:39.471Z,99727.38
2022-12-04T14:03:50.499Z,99723.38
2022-12-04T14:08:58.774Z,99725.06
2022-12-04T14:14:06.517Z,99711.66
2022-12-04T14:19:26.773Z,99709.00
2022-12-04T14:24:31.862Z,99714.94
2022-12-04T14:29:52.050Z,99707.31
2022-12-04T14:34:55.161Z,99709.03
2022-12-04T14:39:58.645Z,99719.19
2022-12-04T14:45:02.629Z,99707.31
2022-12-04T14:50:29.862Z,99707.19
2022-12-04T14:55:52.587Z,99703.09
2022-12-04T15:00:56.813Z,99695.66
2022-12-04T15:06:12.067Z,99696.19
2022-12-04T15:11:39.339Z,99701.28
2022-12-04T15:16:41.034Z,99702.91
2022-12-04T15:21:42.761Z,99707.97
2022-12-04T15:26:44.516Z,99726.91
2022-12-04T15:31:53.475Z,99725.22
2022-12-04T15:37:18.661Z,99731.91
2022-12-04T15:42:30.431Z,99735.84
2022-12-04T15:47:54.210Z,99742.69
2022-12-04T15:53:13.703Z,99738.75
2022-12-04T15:58:33.297Z,99728.19
2022-12-04T16:03:46.153Z,99739.69
2022-12-04T16:08:53.611Z,99741.47
2022-12-04T16:14:15.548Z,99735.28
2022-12-04T16:19:39.137Z,99731.63
2022-12-04T16:24:41.008Z,99732.63
2022-12-04T16:29:42.875Z,99737.13
2022-12-04T16:34:44.671Z,99733.81
2022-12-04T16:39:46.795Z,99743.41
2022-12-04T16:44:48.944Z,99746.72
2022-12-04T16:49:51.989Z,99745.06
2022-12-04T16:54:53.704Z,99745.78
2022-12-04T16:59:55.666Z,99743.88
2022-12-04T17:04:58.252Z,99755.13
2022-12-04T17:09:59.945Z,99757.63
2022-12-04T17:15:01.554Z,99758.03
2022-12-04T17:20:03.588Z,99754.66
2022-12-04T17:25:06.147Z,99750.34
2022-12-04T17:30:08.699Z,99741.88
2022-12-04T17:35:12.647Z,99739.97
2022-12-04T17:40:14.753Z,99745.13
2022-12-04T17:45:17.056Z,99739.16
2022-12-04T17:50:18.662Z,99742.31
2022-12-04T17:55:20.278Z,99741.75
2022-12-04T18:00:21.967Z,99745.09
2022-12-04T18:05:23.697Z,99745.59
2022-12-04T18:10:25.371Z,99730.69
2022-12-04T18:15:26.974Z,99729.09
2022-12-04T18:20:28.572Z,99732.66
2022-12-04T18:25:30.179Z,99729.31
2022-12-04T18:30:33.653Z,99729.38
2022-12-04T18:35:35.309Z,99725.34
2022-12-04T18:40:36.981Z,99725.38
2022-12-04T18:45:38.644Z,99720.41
2022-12-04T18:50:43.425Z,99714.16
2022-12-04T18:55:45.029Z,99714.09
2022-12-04T19:00:47.210Z,99706.78
2022-12-04T19:05:51.903Z,99711.09
2022-12-04T19:10:53.583Z,99708.44
2022-12-04T19:15:55.189Z,99709.13
2022-12-04T19:20:57.435Z,99701.69
2022-12-04T19:26:00.661Z,99705.84
2022-12-04T19:31:02.262Z,99704.38
2022-12-04T19:36:05.888Z,99709.34
2022-12-04T19:41:17.988Z,99722.81
2022-12-04T19:46:26.942Z,99727.53
2022-12-04T19:51:32.611Z,99735.19
2022-12-04T19:56:35.521Z,99747.84
2022-12-04T20:01:37.364Z,99747.59
2022-12-04T20:06:44.841Z,99754.94
2022-12-04T20:11:46.791Z,99758.91
2022-12-04T20:16:48.653Z,99758.47
2022-12-04T20:21:56.153Z,99759.78
2022-12-04T20:27:00.989Z,99755.00
2022-12-04T20:32:02.661Z,99751.28
2022-12-04T20:37:04.298Z,99747.81
2022-12-04T20:42:05.914Z,99753.09
2022-12-04T20:47:07.553Z,99759.78
2022-12-04T20:52:09.171Z,99759.38
2022-12-04T20:57:10.990Z,99763.47
2022-12-04T21:02:13.082Z,99761.44
2022-12-04T21:07:14.726Z,99763.03
2022-12-04T21:12:39.896Z,99770.53
2022-12-04T21:17:44.679Z,99771.44
2022-12-04T21:22:46.300Z,99779.97
2022-12-04T21:27:47.956Z,99787.94
2022-12-04T21:32:49.546Z,99786.94
2022-12-04T21:37:51.152Z,99787.78
2022-12-04T21:42:52.784Z,99792.38
2022-12-04T21:47:54.378Z,99791.72
2022-12-04T21:52:56.060Z,99793.44
2022-12-04T21:57:57.644Z,99798.66
2022-12-04T22:02:59.733Z,99795.16
2022-12-04T22:08:01.486Z,99795.03
2022-12-04T22:13:03.250Z,99794.88
2022-12-04T22:18:06.212Z,99796.47
2022-12-04T22:23:08.831Z,99796.34
2022-12-04T22:28:10.440Z,99796.56
2022-12-04T22:33:12.043Z,99793.09
2022-12-04T22:38:14.003Z,99794.09
2022-12-04T22:43:16.750Z,99799.72
2022-12-04T22:48:18.348Z,99789.22
2022-12-04T22:53:20.065Z,99784.84
2022-12-04T22:58:22.425Z,99784.81
2022-12-04T23:03:24.624Z,99785.78
2022-12-04T23:08:26.582Z,99787.56
2022-12-04T23:13:28.241Z,99785.88
2022-12-04T23:18:29.957Z,99789.50
2022-12-04T23:23:32.637Z,99780.25
2022-12-04T23:28:35.189Z,99788.91
2022-12-04T23:33:37.521Z,99791.53
2022-12-04T23:38:40.283Z,99789.03
2022-12-04T23:43:42.662Z,99789.28
2022-12-04T23:48:45.438Z,99792.88
2022-12-04T23:53:48.213Z,99799.84
2022-12-04T23:58:52.449Z,99801.75
